Hanoi, Viet Nam

9:21 PM ICT on July 24, 2014 (GMT +0700)
Noibai International (VVNB) Elev 36 ft | 21.22 °N, 105.81 °E | Change Station

Current weather conditions updated 21 minutes ago

Clear
Clear
90 °F
Feels Like 111 °F
N
10
Wind Variable Wind from SE

Tomorrow is forecast to be Cooler than today. A few thunderstorms possible.

Today
High -- | Low -- °F
--% Chance of Precip.
Yesterday
High -- | Low -- °F
Precip. -- in
5:27 AM 6:38 PM
Waning Crescent, 5% visible
Pressure 29.59 in
Visibility -9999.0 miles
Clouds
Heat Index 111 °F
Dew Point 82 °F
Humidity 79%
Rainfall 0.00 in
Snow Depth Not available.
UV Not available.
Pollen Not available.
Air Quality Not available.
Flu Activity Not available.
METAR VVNB 241400Z 14009KT CAVOK 32/28 Q1002 NOSIG

More Conditions Fewer Conditions

Pressure 29.59 in
Visibility -9999.0 miles
Clouds
Heat Index 111 °F
Dew Point 82 °F
Humidity 79%
Rainfall 0.00 in
Snow Depth Not available.
UV Not available.
Pollen Not available.
Air Quality Not available.
Flu Activity Not available.
METAR VVNB 241400Z 14009KT CAVOK 32/28 Q1002 NOSIG

More Conditions Fewer Conditions

10-Day Weather Forecast

Almanac

Astronomy

Jul. 24, 2014 Rise Set
Actual Time 5:27 AM ICT 6:38 PM ICT
Civil Twilight 5:03 AM ICT 7:02 PM ICT
Nautical Twilight 4:34 AM ICT 7:31 PM ICT
Astronomical Twilight 4:05 AM ICT 8:00 PM ICT
Moon 3:06 AM ICT 4:31 PM ICT
Length of Visible Light 13h 59m
Length of Day
13h 11m
Tomorrow will be 0m 45s shorter.
Waning Crescent, 5% of the Moon is Illuminated
Today
Waning Crescent
Jul 26
New
Aug 3
First Quarter
Aug 10
Full
Aug 17
Last Quarter

Yesterday's Extremes

Country Highs Country Lows

Community

WunderPhotos

Upload Photos

1,737,019 photos uploaded!

Nearby

Snow Depth

Not available.

Earthquake Activity

City Distance Mag. Time & Date
No recent earthquake activity has been reported nearby.
Minimum magnitude displayed is 2.5.

Coastal Water Temperatures

Place Temperature
No Stations Reporting

Nearby Weather Stations

There are no personal weather stations in this area.